Englewood, OH

11:51 AM EDT on August 29, 2015 (GMT -0400)
Northcreek | | Change Station
CLOSE
Current Station
Personal Weather Station
Location: Englewood, OH
Elevation: 951 ft
Nearby Weather Stations

Elev 951 ft 39.86 °N, 84.32 °W | Updated 11 seconds ago

Overcast
Overcast
79.0 °F
Feels Like 81 °F
N
2.7
Wind Variable Wind from WSW
Gusts 7.4 mph

Today
High -- | Low -- °F
--% Chance of Precip.
Yesterday
High -- | Low -- °F
Precip. -- in
7:02 AM 8:13 PM
Full, 100% visible
Pressure 30.13 in
Visibility 10.0 miles
Clouds Few 2500 ft
Scattered Clouds 7000 ft
Mostly Cloudy 19000 ft
Overcast 25000 ft
Heat Index 81 °F
Dew Point 67 °F
Humidity 67%
Rainfall 0.00 in
Snow Depth Not available.
UV 4.0 out of 12
Pollen 10.30 out of 12
Air Quality Not available.
Flu Activity Not available.
METAR KDAY 291456Z 20008KT 10SM FEW025 SCT070 BKN190 OVC250 23/18 A3015 RMK AO2 SLP203 T02330183 55000
Pressure 30.13 in
Visibility 10.0 miles
Clouds Few 2500 ft
Scattered Clouds 7000 ft
Mostly Cloudy 19000 ft
Overcast 25000 ft
Heat Index 81 °F
Dew Point 67 °F
Humidity 67%
Rainfall 0.00 in
Snow Depth Not available.
UV 4.0 out of 12
Pollen 10.30 out of 12
Air Quality Not available.
Flu Activity Not available.
METAR KDAY 291456Z 20008KT 10SM FEW025 SCT070 BKN190 OVC250 23/18 A3015 RMK AO2 SLP203 T02330183 55000

10-Day Weather Forecast

×

Almanac

Astronomy

Aug. 29, 2015 Rise Set
Actual Time
Civil Twilight
Nautical Twilight
Astronomical Twilight
Moon
Length of Visible Light
Length of Day
Tomorrow will be .
, % of the Moon is Illuminated

Today's Extremes

State Highs State Lows

Community

WunderPhotos

Upload Photos

1,850,700 photos uploaded!

WunderBlogs® & News

Nearby

Air Quality

  Air Quality AQ Index Pollutant
Not available.

Snow Depth

Station Depth Elevation

Earthquake Activity

City Distance Mag. Time & Date
Minimum magnitude displayed is 2.5.

Coastal Water Temperatures

Place Temperature

Stations

Nearby Weather Stations

Station Location Temp. Windchill Dew Point Humidity Wind Precip. Elev Updated Type